createdAt,value
2022-09-29T00:00:27.434Z,1.98
2022-09-29T00:02:54.734Z,1.90
2022-09-29T00:05:22.174Z,2.00
2022-09-29T00:07:49.458Z,2.13
2022-09-29T00:10:20.323Z,2.00
2022-09-29T00:13:05.322Z,1.90
2022-09-29T00:15:32.735Z,2.30
2022-09-29T00:18:29.391Z,2.03
2022-09-29T00:21:07.836Z,2.10
2022-09-29T00:23:35.517Z,2.17
2022-09-29T00:26:06.091Z,2.30
2022-09-29T00:28:34.251Z,2.00
2022-09-29T00:31:01.907Z,2.00
2022-09-29T00:33:31.330Z,2.05
2022-09-29T00:36:10.203Z,2.00
2022-09-29T00:38:37.529Z,2.38
2022-09-29T00:41:06.005Z,2.05
2022-09-29T00:44:03.916Z,1.73
2022-09-29T00:46:37.304Z,1.80
2022-09-29T00:49:29.118Z,1.77
2022-09-29T00:52:00.535Z,1.30
2022-09-29T00:54:29.620Z,1.55
2022-09-29T00:56:56.911Z,1.40
2022-09-29T00:59:32.671Z,1.67
2022-09-29T01:02:00.181Z,1.50
2022-09-29T01:04:27.587Z,1.50
2022-09-29T01:06:57.043Z,1.73
2022-09-29T01:09:32.322Z,1.65
2022-09-29T01:11:59.645Z,1.83
2022-09-29T01:14:27.966Z,1.85
2022-09-29T01:16:55.284Z,1.65
2022-09-29T01:19:28.499Z,1.70
2022-09-29T01:22:01.688Z,1.70
2022-09-29T01:24:34.794Z,1.70
2022-09-29T01:27:37.439Z,1.80
2022-09-29T01:30:17.685Z,1.70
2022-09-29T01:33:01.763Z,1.60
2022-09-29T01:35:50.291Z,2.10
2022-09-29T01:38:27.974Z,2.00
2022-09-29T01:41:08.773Z,1.90
2022-09-29T01:43:56.507Z,1.70
2022-09-29T01:46:29.147Z,2.00
2022-09-29T01:48:56.981Z,2.00
2022-09-29T01:51:37.459Z,2.35
2022-09-29T01:54:08.488Z,2.28
2022-09-29T01:56:43.386Z,2.30
2022-09-29T01:59:20.313Z,2.20
2022-09-29T02:01:48.100Z,2.30
2022-09-29T02:04:23.102Z,2.28
2022-09-29T02:06:57.366Z,2.53
2022-09-29T02:09:27.915Z,2.28
2022-09-29T02:11:55.267Z,2.85
2022-09-29T02:14:24.623Z,2.45
2022-09-29T02:17:07.983Z,2.22
2022-09-29T02:19:36.812Z,2.45
2022-09-29T02:22:04.136Z,2.30
2022-09-29T02:24:31.415Z,2.10
2022-09-29T02:26:58.839Z,2.00
2022-09-29T02:29:26.236Z,1.95
2022-09-29T02:31:53.604Z,1.90
2022-09-29T02:34:21.687Z,1.90
2022-09-29T02:37:17.604Z,1.73
2022-09-29T02:39:47.623Z,1.80
2022-09-29T02:42:39.309Z,1.85
2022-09-29T02:45:32.736Z,1.58
2022-09-29T02:48:09.095Z,1.70
2022-09-29T02:50:51.420Z,1.80
2022-09-29T02:53:48.158Z,1.80
2022-09-29T02:56:52.384Z,1.63
2022-09-29T02:59:37.675Z,1.80
2022-09-29T03:02:05.010Z,2.03
2022-09-29T03:04:32.314Z,1.95
2022-09-29T03:06:59.654Z,1.50
2022-09-29T03:09:27.131Z,1.65
2022-09-29T03:11:54.451Z,1.52
2022-09-29T03:14:21.781Z,1.58
2022-09-29T03:16:49.078Z,1.70
2022-09-29T03:19:16.384Z,1.73
2022-09-29T03:21:43.644Z,1.50
2022-09-29T03:24:10.937Z,1.50
2022-09-29T03:26:38.219Z,1.63
2022-09-29T03:29:05.562Z,1.70
2022-09-29T03:31:32.960Z,1.90
2022-09-29T03:34:00.409Z,1.63
2022-09-29T03:36:27.698Z,1.77
2022-09-29T03:38:55.060Z,1.80
2022-09-29T03:41:22.386Z,2.10
2022-09-29T03:43:49.722Z,1.60
2022-09-29T03:46:17.036Z,1.50
2022-09-29T03:48:44.415Z,1.85
2022-09-29T03:51:11.723Z,2.00
2022-09-29T03:53:39.134Z,1.80
2022-09-29T03:56:06.709Z,1.90
2022-09-29T03:58:34.385Z,1.95
2022-09-29T04:01:01.830Z,2.00
2022-09-29T04:03:29.496Z,2.10
2022-09-29T04:05:56.840Z,1.98
2022-09-29T04:08:24.146Z,2.45
2022-09-29T04:10:51.487Z,2.85
2022-09-29T04:13:20.233Z,2.40
2022-09-29T04:15:48.892Z,3.03
2022-09-29T04:18:16.271Z,2.78
2022-09-29T04:20:43.593Z,3.05
2022-09-29T04:23:10.960Z,3.10
2022-09-29T04:25:38.233Z,3.20
2022-09-29T04:28:05.568Z,3.47
2022-09-29T04:30:32.835Z,2.80
2022-09-29T04:33:00.142Z,3.00
2022-09-29T04:35:27.436Z,2.85
2022-09-29T04:37:57.174Z,2.60
2022-09-29T04:40:25.060Z,2.33
2022-09-29T04:42:52.368Z,1.90
2022-09-29T04:45:19.794Z,2.20
2022-09-29T04:47:47.146Z,1.67
2022-09-29T04:50:14.479Z,2.03
2022-09-29T04:52:43.338Z,2.15
2022-09-29T04:55:13.820Z,1.98
2022-09-29T04:57:44.477Z,1.80
2022-09-29T05:00:12.330Z,1.90
2022-09-29T05:02:39.829Z,1.90
2022-09-29T05:05:08.024Z,1.70
2022-09-29T05:07:35.526Z,1.80
2022-09-29T05:10:04.142Z,2.00
2022-09-29T05:12:31.580Z,2.20
2022-09-29T05:14:59.019Z,2.30
2022-09-29T05:17:26.384Z,1.70
2022-09-29T05:19:53.709Z,1.85
2022-09-29T05:22:24.624Z,1.65
2022-09-29T05:24:52.428Z,2.05
2022-09-29T05:27:19.892Z,3.75
2022-09-29T05:29:47.237Z,2.22
2022-09-29T05:32:14.568Z,2.40
2022-09-29T05:34:41.975Z,1.90
2022-09-29T05:37:09.864Z,3.20
2022-09-29T05:39:37.696Z,2.17
2022-09-29T05:42:06.527Z,2.10
2022-09-29T05:44:33.982Z,2.70
2022-09-29T05:47:01.353Z,2.50
2022-09-29T05:49:30.876Z,2.30
2022-09-29T05:51:58.267Z,2.80
2022-09-29T05:54:27.454Z,2.85
2022-09-29T05:56:56.080Z,3.38
2022-09-29T05:59:23.392Z,3.33
2022-09-29T06:01:50.784Z,5.40
2022-09-29T06:04:18.220Z,5.63
2022-09-29T06:06:46.358Z,4.75
2022-09-29T06:09:14.131Z,3.22
2022-09-29T06:11:41.483Z,3.30
2022-09-29T06:14:08.821Z,14.43
2022-09-29T06:16:36.591Z,4.53
2022-09-29T06:19:04.099Z,3.60
2022-09-29T06:21:31.842Z,4.22
2022-09-29T06:23:59.202Z,3.63
2022-09-29T06:26:27.159Z,3.75
2022-09-29T06:28:54.711Z,3.88
2022-09-29T06:31:23.815Z,3.90
2022-09-29T06:33:51.220Z,3.08
2022-09-29T06:36:38.974Z,5.22
2022-09-29T06:39:06.798Z,3.47
2022-09-29T06:41:35.333Z,2.70
2022-09-29T06:44:02.871Z,3.03
2022-09-29T06:46:30.436Z,2.83
2022-09-29T06:48:57.941Z,3.30
2022-09-29T06:51:38.000Z,3.70
2022-09-29T06:54:12.162Z,3.13
2022-09-29T06:56:40.173Z,3.00
2022-09-29T06:59:07.708Z,3.22
2022-09-29T07:01:35.162Z,3.00
2022-09-29T07:04:02.847Z,2.80
2022-09-29T07:06:30.368Z,2.75
2022-09-29T07:08:58.793Z,2.72
2022-09-29T07:11:26.468Z,2.83
2022-09-29T07:13:55.063Z,2.85
2022-09-29T07:16:25.786Z,2.20
2022-09-29T07:18:53.292Z,3.00
2022-09-29T07:21:21.468Z,2.70
2022-09-29T07:23:49.050Z,3.00
2022-09-29T07:26:16.830Z,1.98
2022-09-29T07:28:45.279Z,1.90
2022-09-29T07:31:15.736Z,2.35
2022-09-29T07:33:47.662Z,1.95
2022-09-29T07:36:16.130Z,2.20
2022-09-29T07:38:46.117Z,2.25
2022-09-29T07:41:13.497Z,2.25
2022-09-29T07:43:40.853Z,2.38
2022-09-29T07:46:08.663Z,2.67
2022-09-29T07:48:36.537Z,2.15
2022-09-29T07:51:08.534Z,2.30
2022-09-29T07:53:37.018Z,1.95
2022-09-29T07:56:09.238Z,1.63
2022-09-29T07:58:37.495Z,1.90
2022-09-29T08:01:07.584Z,1.73
2022-09-29T08:03:35.127Z,2.05
2022-09-29T08:06:02.666Z,1.90
2022-09-29T08:08:30.029Z,2.08
2022-09-29T08:11:07.908Z,2.10
2022-09-29T08:13:36.346Z,2.00
2022-09-29T08:16:04.715Z,1.73
2022-09-29T08:18:32.342Z,1.90
2022-09-29T08:21:02.917Z,1.80
2022-09-29T08:23:34.887Z,1.80
2022-09-29T08:26:09.738Z,2.00
2022-09-29T08:28:37.710Z,1.70
2022-09-29T08:31:09.164Z,2.20
2022-09-29T08:33:36.998Z,1.95
2022-09-29T08:36:06.277Z,1.60
2022-09-29T08:38:33.602Z,1.70
2022-09-29T08:41:03.940Z,1.70
2022-09-29T08:43:40.761Z,1.65
2022-09-29T08:46:12.143Z,1.70
2022-09-29T08:48:54.599Z,1.85
2022-09-29T08:51:53.419Z,8.63
2022-09-29T08:54:46.152Z,4.22
2022-09-29T08:57:19.795Z,1.70
2022-09-29T08:59:59.747Z,1.65
2022-09-29T09:02:51.936Z,1.80
2022-09-29T09:05:55.605Z,1.80
2022-09-29T09:09:16.986Z,1.38
2022-09-29T09:12:10.163Z,1.27
2022-09-29T09:15:02.637Z,1.40
2022-09-29T09:17:52.151Z,1.40
2022-09-29T09:20:25.678Z,1.60
2022-09-29T09:23:00.194Z,1.97
2022-09-29T09:25:29.035Z,1.60
2022-09-29T09:28:04.058Z,1.50
2022-09-29T09:30:37.162Z,1.95
2022-09-29T09:33:07.364Z,1.80
2022-09-29T09:35:37.578Z,2.13
2022-09-29T09:38:15.515Z,1.67
2022-09-29T09:40:45.281Z,2.47
2022-09-29T09:43:34.859Z,1.52
2022-09-29T09:46:20.718Z,1.50
2022-09-29T09:48:51.850Z,4.68
2022-09-29T09:51:35.427Z,2.80
2022-09-29T09:54:05.529Z,1.80
2022-09-29T09:56:36.047Z,5.38
2022-09-29T09:59:28.811Z,2.30
2022-09-29T10:01:56.112Z,1.98
2022-09-29T10:04:26.167Z,1.60
2022-09-29T10:06:53.504Z,1.73
2022-09-29T10:09:21.159Z,2.50
2022-09-29T10:11:48.653Z,1.80
2022-09-29T10:14:26.140Z,3.05
2022-09-29T10:17:02.517Z,1.65
2022-09-29T10:19:54.047Z,1.80
2022-09-29T10:22:21.556Z,1.70
2022-09-29T10:24:48.958Z,1.88
2022-09-29T10:27:20.558Z,1.67
2022-09-29T10:29:52.506Z,1.70
2022-09-29T10:32:19.820Z,1.40
2022-09-29T10:34:49.813Z,1.50
2022-09-29T10:37:38.129Z,1.30
2022-09-29T10:40:08.601Z,2.30
2022-09-29T10:42:37.001Z,2.13
2022-09-29T10:45:23.585Z,1.60
2022-09-29T10:48:04.309Z,1.23
2022-09-29T10:50:37.525Z,1.80
2022-09-29T10:53:32.287Z,3.00
2022-09-29T10:56:01.739Z,1.60
2022-09-29T10:58:45.657Z,1.40
2022-09-29T11:01:23.673Z,1.60
2022-09-29T11:04:01.537Z,1.27
2022-09-29T11:06:32.890Z,1.40
2022-09-29T11:09:07.892Z,1.52
2022-09-29T11:12:00.061Z,2.10
2022-09-29T11:14:38.043Z,1.85
2022-09-29T11:17:24.276Z,1.65
2022-09-29T11:19:52.640Z,1.30
2022-09-29T11:22:38.985Z,1.33
2022-09-29T11:25:09.608Z,1.50
2022-09-29T11:27:43.967Z,1.27
2022-09-29T11:32:53.547Z,1.10
2022-09-29T11:35:50.916Z,1.42
2022-09-29T11:38:39.749Z,1.30
2022-09-29T11:41:16.983Z,1.48
2022-09-29T11:43:57.159Z,1.55
2022-09-29T11:46:36.237Z,1.75
2022-09-29T11:49:12.872Z,1.55
2022-09-29T11:52:05.723Z,1.60
2022-09-29T11:54:43.380Z,1.70
2022-09-29T11:57:31.798Z,1.67
2022-09-29T12:00:08.842Z,1.67
2022-09-29T12:02:51.414Z,1.48
2022-09-29T12:05:27.637Z,1.60
2022-09-29T12:08:03.134Z,1.50
2022-09-29T12:10:54.983Z,1.60
2022-09-29T12:13:41.491Z,1.48
2022-09-29T12:16:14.214Z,1.30
2022-09-29T12:19:10.633Z,1.60
2022-09-29T12:21:46.877Z,1.80
2022-09-29T12:24:26.033Z,3.00
2022-09-29T12:26:53.483Z,1.92
2022-09-29T12:29:26.892Z,1.70
2022-09-29T12:31:54.402Z,2.10
2022-09-29T12:34:38.059Z,5.30
2022-09-29T12:37:10.642Z,2.90
2022-09-29T12:39:40.400Z,1.90
2022-09-29T12:42:16.548Z,2.30
2022-09-29T12:44:53.452Z,2.72
2022-09-29T12:47:41.894Z,2.80
2022-09-29T12:50:18.179Z,3.78
2022-09-29T12:52:52.613Z,3.83
2022-09-29T12:55:49.936Z,3.17
2022-09-29T12:58:36.475Z,2.95
2022-09-29T13:01:29.955Z,2.60
2022-09-29T13:04:31.399Z,2.80
2022-09-29T13:07:07.834Z,2.58
2022-09-29T13:10:03.288Z,2.60
2022-09-29T13:13:13.154Z,2.72
2022-09-29T13:16:02.291Z,2.65
2022-09-29T13:18:49.010Z,3.00
2022-09-29T13:21:37.283Z,3.35
2022-09-29T13:24:32.936Z,3.63
2022-09-29T13:27:27.395Z,4.20
2022-09-29T13:30:05.438Z,3.20
2022-09-29T13:32:32.747Z,3.38
2022-09-29T13:35:00.937Z,3.35
2022-09-29T13:37:35.504Z,4.22
2022-09-29T13:40:10.626Z,4.10
2022-09-29T13:42:45.209Z,4.15
2022-09-29T13:45:27.973Z,3.53
2022-09-29T13:47:59.296Z,3.33
2022-09-29T13:50:45.680Z,3.30
2022-09-29T13:53:33.772Z,3.28
2022-09-29T13:56:04.251Z,2.97
2022-09-29T13:58:33.664Z,3.40
2022-09-29T14:01:07.964Z,3.08
2022-09-29T14:03:40.428Z,3.67
2022-09-29T14:06:39.170Z,3.63
2022-09-29T14:09:05.866Z,3.55
2022-09-29T14:11:37.424Z,5.13
2022-09-29T14:14:06.299Z,4.07
2022-09-29T14:16:47.199Z,3.92
2022-09-29T14:19:14.470Z,6.32
2022-09-29T14:22:00.918Z,4.40
2022-09-29T14:24:37.351Z,4.38
2022-09-29T14:27:25.890Z,4.50
2022-09-29T14:30:13.574Z,4.63
2022-09-29T14:32:56.874Z,4.93
2022-09-29T14:35:35.122Z,4.50
2022-09-29T14:38:06.816Z,4.95
2022-09-29T14:40:34.274Z,4.93
2022-09-29T14:43:17.384Z,5.00
2022-09-29T14:46:22.487Z,4.70
2022-09-29T14:49:14.818Z,5.28
2022-09-29T14:52:00.121Z,4.00
2022-09-29T14:54:39.427Z,4.63
2022-09-29T14:57:33.534Z,4.05
2022-09-29T15:00:20.328Z,4.57
2022-09-29T15:02:55.424Z,4.60
2022-09-29T15:05:34.106Z,4.60
2022-09-29T15:08:02.208Z,4.55
2022-09-29T15:10:31.536Z,5.40
2022-09-29T15:13:31.591Z,5.57
2022-09-29T15:16:13.690Z,6.70
2022-09-29T15:19:05.634Z,6.65
2022-09-29T15:21:37.644Z,7.15
2022-09-29T15:24:26.038Z,8.13
2022-09-29T15:26:53.782Z,6.28
2022-09-29T15:29:21.441Z,6.20
2022-09-29T15:31:50.007Z,5.93
2022-09-29T15:34:20.059Z,5.80
2022-09-29T15:36:50.075Z,5.70
2022-09-29T15:39:45.297Z,7.13
2022-09-29T15:42:23.858Z,6.20
2022-09-29T15:45:01.205Z,6.40
2022-09-29T15:47:39.073Z,6.18
2022-09-29T15:50:23.684Z,6.32
2022-09-29T15:52:51.214Z,6.15
2022-09-29T15:55:21.821Z,6.32
2022-09-29T15:57:51.145Z,6.85
2022-09-29T16:00:21.492Z,7.13
2022-09-29T16:02:55.459Z,7.00
2022-09-29T16:05:23.039Z,7.50
2022-09-29T16:07:56.731Z,7.45
2022-09-29T16:10:33.931Z,6.45
2022-09-29T16:13:08.776Z,6.72
2022-09-29T16:15:47.289Z,7.60
2022-09-29T16:18:37.276Z,8.15
2022-09-29T16:21:10.108Z,8.07
2022-09-29T16:23:42.308Z,8.48
2022-09-29T16:26:11.988Z,7.75
2022-09-29T16:28:40.122Z,7.85
2022-09-29T16:31:22.371Z,7.95
2022-09-29T16:33:56.610Z,8.02
2022-09-29T16:38:53.403Z,7.45
2022-09-29T16:41:27.865Z,7.70
2022-09-29T16:44:18.838Z,10.73
2022-09-29T16:47:12.291Z,7.63
2022-09-29T16:49:53.140Z,8.00
2022-09-29T16:52:26.111Z,7.85
2022-09-29T16:54:55.072Z,8.82
2022-09-29T16:57:26.490Z,8.38
2022-09-29T16:59:55.847Z,7.25
2022-09-29T17:02:23.554Z,6.70
2022-09-29T17:04:54.728Z,9.05
2022-09-29T17:07:24.026Z,6.53
2022-09-29T17:09:56.430Z,7.30
2022-09-29T17:12:24.144Z,7.60
2022-09-29T17:14:51.557Z,6.65
2022-09-29T17:17:26.609Z,6.32
2022-09-29T17:19:57.480Z,6.03
2022-09-29T17:22:36.748Z,6.95
2022-09-29T17:25:04.405Z,7.25
2022-09-29T17:27:50.144Z,7.57
2022-09-29T17:30:20.976Z,7.68
2022-09-29T17:32:49.048Z,7.60
2022-09-29T17:35:17.900Z,8.38
2022-09-29T17:37:46.752Z,7.80
2022-09-29T17:40:21.856Z,7.65
2022-09-29T17:42:49.229Z,10.65
2022-09-29T17:45:17.765Z,14.35
2022-09-29T17:47:45.505Z,12.38
2022-09-29T17:50:22.142Z,12.48
2022-09-29T17:52:49.501Z,11.85
2022-09-29T17:55:16.870Z,10.85
2022-09-29T17:57:48.537Z,10.63
2022-09-29T18:00:47.078Z,9.82
2022-09-29T18:03:14.647Z,10.07
2022-09-29T18:05:42.678Z,10.25
2022-09-29T18:08:17.608Z,10.23
2022-09-29T18:10:50.972Z,10.32
2022-09-29T18:13:18.961Z,9.73
2022-09-29T18:15:46.987Z,9.95
2022-09-29T18:18:17.257Z,10.50
2022-09-29T18:20:47.800Z,10.85
2022-09-29T18:23:17.746Z,10.30
2022-09-29T18:25:47.846Z,9.48
2022-09-29T18:28:15.937Z,7.82
2022-09-29T18:30:44.103Z,8.63
2022-09-29T18:33:15.900Z,8.70
2022-09-29T18:35:44.584Z,8.68
2022-09-29T18:38:11.927Z,8.45
2022-09-29T18:40:39.558Z,8.35
2022-09-29T18:43:07.239Z,9.18
2022-09-29T18:45:36.574Z,9.57
2022-09-29T18:48:05.877Z,9.27
2022-09-29T18:50:52.174Z,9.98
2022-09-29T18:53:20.655Z,9.70
2022-09-29T18:55:49.485Z,10.40
2022-09-29T18:58:18.271Z,10.50
2022-09-29T19:00:50.359Z,10.50
2022-09-29T19:03:19.205Z,10.27
2022-09-29T19:05:46.754Z,10.50
2022-09-29T19:08:14.451Z,10.65
2022-09-29T19:10:46.850Z,10.38
2022-09-29T19:13:15.471Z,10.88
2022-09-29T19:15:43.348Z,10.60
2022-09-29T19:18:14.150Z,10.13
2022-09-29T19:20:41.520Z,10.48
2022-09-29T19:23:08.848Z,10.05
2022-09-29T19:25:37.090Z,10.10
2022-09-29T19:28:05.538Z,11.05
2022-09-29T19:30:35.179Z,9.50
2022-09-29T19:33:02.644Z,9.27
2022-09-29T19:35:30.122Z,9.80
2022-09-29T19:37:59.282Z,9.25
2022-09-29T19:40:29.880Z,10.07
2022-09-29T19:42:58.566Z,11.60
2022-09-29T19:45:26.212Z,11.85
2022-09-29T19:47:57.052Z,12.38
2022-09-29T19:50:43.079Z,13.00
2022-09-29T19:53:10.483Z,13.88
2022-09-29T19:55:40.124Z,13.50
2022-09-29T19:58:07.550Z,10.95
2022-09-29T20:00:35.146Z,10.45
2022-09-29T20:03:02.688Z,9.23
2022-09-29T20:05:30.032Z,9.43
2022-09-29T20:07:57.423Z,8.20
2022-09-29T20:10:28.508Z,8.18
2022-09-29T20:12:56.379Z,8.98
2022-09-29T20:15:23.677Z,9.35
2022-09-29T20:17:52.112Z,10.70
2022-09-29T20:20:22.699Z,11.05
2022-09-29T20:22:50.405Z,11.40
2022-09-29T20:25:18.174Z,12.15
2022-09-29T20:27:45.582Z,10.98
2022-09-29T20:30:13.059Z,11.85
2022-09-29T20:32:40.419Z,11.38
2022-09-29T20:35:07.988Z,11.63
2022-09-29T20:37:35.428Z,12.75
2022-09-29T20:40:02.782Z,11.93
2022-09-29T20:42:33.174Z,12.98
2022-09-29T20:45:01.030Z,12.20
2022-09-29T20:47:28.327Z,11.15
2022-09-29T20:49:56.479Z,8.27
2022-09-29T20:52:24.278Z,7.40
2022-09-29T20:54:51.569Z,7.97
2022-09-29T20:57:18.844Z,8.57
2022-09-29T20:59:46.137Z,8.50
2022-09-29T21:02:13.696Z,8.13
2022-09-29T21:04:42.516Z,8.25
2022-09-29T21:07:29.816Z,9.30
2022-09-29T21:09:57.166Z,9.30
2022-09-29T21:12:24.466Z,9.25
2022-09-29T21:14:51.750Z,10.43
2022-09-29T21:17:19.014Z,10.80
2022-09-29T21:19:46.391Z,11.02
2022-09-29T21:22:13.723Z,11.30
2022-09-29T21:24:41.562Z,10.65
2022-09-29T21:27:09.310Z,10.57
2022-09-29T21:29:36.666Z,11.20
2022-09-29T21:32:04.145Z,10.57
2022-09-29T21:34:31.452Z,11.23
2022-09-29T21:36:58.755Z,11.85
2022-09-29T21:39:26.036Z,10.32
2022-09-29T21:41:53.348Z,10.68
2022-09-29T21:44:23.292Z,10.57
2022-09-29T21:46:50.857Z,9.98
2022-09-29T21:49:19.415Z,10.48
2022-09-29T21:51:48.417Z,10.15
2022-09-29T21:54:20.720Z,10.38
2022-09-29T21:56:48.357Z,11.20
2022-09-29T21:59:17.247Z,10.40
2022-09-29T22:01:45.245Z,10.80
2022-09-29T22:04:12.800Z,11.23
2022-09-29T22:06:40.320Z,11.68
2022-09-29T22:09:08.326Z,12.10
2022-09-29T22:11:38.779Z,12.20
2022-09-29T22:14:06.141Z,11.68
2022-09-29T22:16:34.285Z,13.90
2022-09-29T22:19:23.349Z,12.45
2022-09-29T22:21:51.602Z,11.90
2022-09-29T22:24:18.958Z,12.80
2022-09-29T22:26:46.270Z,14.18
2022-09-29T22:29:13.578Z,13.95
2022-09-29T22:31:41.168Z,14.48
2022-09-29T22:34:08.644Z,14.00
2022-09-29T22:36:35.978Z,12.93
2022-09-29T22:39:04.716Z,13.80
2022-09-29T22:41:33.211Z,13.77
2022-09-29T22:44:00.941Z,13.75
2022-09-29T22:46:29.691Z,13.43
2022-09-29T22:48:57.275Z,16.15
2022-09-29T22:51:25.173Z,14.57
2022-09-29T22:53:52.470Z,13.25
2022-09-29T22:56:21.273Z,14.45
2022-09-29T22:58:51.839Z,13.95
2022-09-29T23:01:21.244Z,14.20
2022-09-29T23:03:49.111Z,14.20
2022-09-29T23:06:16.482Z,15.27
2022-09-29T23:08:43.854Z,13.98
2022-09-29T23:11:17.443Z,14.88
2022-09-29T23:13:44.861Z,15.00
2022-09-29T23:16:13.290Z,15.15
2022-09-29T23:18:44.881Z,15.43
2022-09-29T23:21:14.712Z,16.30
2022-09-29T23:23:42.110Z,15.48
2022-09-29T23:26:09.474Z,16.27
2022-09-29T23:28:36.807Z,16.23
2022-09-29T23:31:05.366Z,16.90
2022-09-29T23:33:32.810Z,15.95
2022-09-29T23:36:13.620Z,15.88
2022-09-29T23:39:00.476Z,17.35
2022-09-29T23:41:29.806Z,15.98
2022-09-29T23:43:59.158Z,15.95
2022-09-29T23:46:30.020Z,16.63
2022-09-29T23:49:01.059Z,15.50
2022-09-29T23:51:31.078Z,15.75
2022-09-29T23:53:59.250Z,15.13
2022-09-29T23:56:26.958Z,15.43
2022-09-29T23:58:54.428Z,15.48
